Auburn, CA

9:56 PM PST on February 22, 2017 (GMT -0800)
Outside Lake of the Pines | | Change Station
Active Advisory: Hydrologic Statement

Elev 1581 ft 39.04 °N, 121.09 °W | Updated 49 seconds ago

Mostly Cloudy
Mostly Cloudy
34.5 °F
Feels Like 34 °F
N
2.0
Wind Variable Wind from ENE

Today
High -- | Low -- °F
--% Chance of Precip.
Yesterday
High -- | Low -- °F
Precip. -- in
Pressure 30.13 in
Visibility 10.0 miles
Clouds Mostly Cloudy 8500 ft
Windchill 34 °F
Dew Point 33 °F
Humidity 96%
Rainfall 0.02 in
Snow Depth Not available.
6:46 AM 5:49 PM
Waning Crescent, 12% visible
METAR KAUN 230535Z AUTO 12004KT 10SM BKN085 03/01 A3013 RMK AO1
Pressure 30.13 in
Visibility 10.0 miles
Clouds Mostly Cloudy 8500 ft
Windchill 34 °F
Dew Point 33 °F
Humidity 96%
Rainfall 0.02 in
Snow Depth Not available.
6:46 AM 5:49 PM
Waning Crescent, 12% visible
METAR KAUN 230535Z AUTO 12004KT 10SM BKN085 03/01 A3013 RMK AO1

Get Your Daily Forecast Email!

Thanks for signing up!

Be on the lookout for a verification email in your inbox.

You'll start receiving the daily forecast at 8 AM.

×

10-Day Weather Forecast

Almanac

Astronomy

Feb. 22, 2017 Rise Set
Actual Time
Civil Twilight
Nautical Twilight
Astronomical Twilight
Moon
Length of Visible Light
Length of Day
Tomorrow will be .
, % of the Moon is Illuminated

Today's Extremes

State Highs State Lows

Community

WunderPhotos

Upload Photos

1,962,540 photos uploaded!

WunderBlog® & News

Nearby

Air Quality

  Air Quality AQ Index Pollutant
Not available.

Snow Depth

Station Depth Elevation

Earthquake Activity

City Distance Mag. Time & Date
Minimum magnitude displayed is 2.5.

Coastal Water Temperatures

Place Temperature

Stations

Nearby Weather Stations

Station Location Temp. Windchill Dew Point Humidity Wind Precip. Elev Updated Type
                   

Watches & Warnings

Hydrologic Statement
Issued: 8:46 PM PST Feb. 22, 2017 – National Weather Service

Forecast information for
Cosumnes river at Michigan Bar.
* At 7:30 PM Wednesday the stage was 8.8 feet.
* Forecast to recede to near 7.5 ft tomorrow evening then forecast to
fluctuate near 7.5 ft thru late tomorrow evening.
* Flood stage 12.0 ft
* monitor stage 7.0 ft
* impact... near 8.0 feet, low lying lands along the river begin to
flood.

&&

Lat... Lon 3848 12133 3859 12103 3842 12092 3836 12124